Weather at Batajnica Air Base

Public forecast

Using degrees Celsius for public forecast. Weather courtesy of forecast.io.

Current aviation weather report (METAR) for Batajnica Air Base

Retrieved 2020/09/25 07:30 UTC (16 minutes ago):

LYBT 250730Z 13012KT CAVOK 24/12 Q1004 NOSIG

Aviation forecast (TAF) for Batajnica Air Base

Retrieved 2020/09/25 06:00 UTC (2 hours ago):

TAF LYBT 250500Z 2506/2606 10005KT CAVOK TX27/2513Z TN16/2604Z BECMG 2507/2509 13015KT TEMPO 2519/2522 RA BECMG 2523/2601 20007KT TEMPO 2601/2604 5000 SHRA SCT030TCU BKN040